Louise, Mississippi
Current Conditions -  °F | °C
As of 6:53 PM on Friday 28 Nov 2014 (Local Time) from KGLH Reporting Station
Clear Clear  
Wind Chill:   Ceiling: Unl
Heat Index:   Visibility: 10mi
Dew Point:   Wind: 12mph
Humidity: 56%   Direction: 170°S
Pressure: 30.16"   Gusts: NA
Location:  32.98°N, 90.59°W
Report Text: KGLH 290053Z AUTO 17010KT 10SM CLR 08/00 A3016 RMK AO2 SLP223 T00830000
Loading
Personal Weather Stations






























Interactive Weather Map New forecast layout! Learn more

10-Day Weather Forecast

Advertisements
Track Severe Weather on mobile